Pagrindinis puslapis
METAR-TAF:

METAR-TAF

Oro uostai :

Phuketas, Tailandas

platuma: 08-07N, ilguma: 098-19E, Aukštis: 6 m

Dabartinis oras

Ataskaita buvo paskelbta 23 minutes, ne 04:30 UTC
Vėjas 7 kt iš Rytų, svyruoja nuo Šiaurės/Šiaurės Rytų ir Pietų
Temperatūra 31°C
Drėgmė 52%
Slėgis 1011 hPa
Matomumas 10 km arba daugiau
Mažai debesys ne aukštis 2000 ft

METAR: VTSP 290430Z 09007KT 020V170 9999 FEW020 31/20 Q1011 NOSIG

Laikas: 11:53 (04:53 UTC)

Prognozė

Ataskaita buvo paskelbta 5 valandos ir 53 minutes, ne 23:00 UTC
Prognozė galioja nuo 29 metu 00 UTC su 01 metu 06 UTC
Vėjas 8 kt iš Rytų
Matomumas 10 km arba daugiau
Mažai debesys ne aukštis 2000 ft
Tapsmas
nuo 29 metu 06 UTC su 29 metu 08 UTC
Vėjas 10 kt iš Vakarų/Šiaurės Vakarų
Tapsmas
nuo 29 metu 12 UTC su 29 metu 14 UTC
Vėjas kt iš Šiaurės
Tapsmas
nuo 01 metu 00 UTC su 01 metu 02 UTC
Vėjas 8 kt iš Rytų

TAF: VTSP 282300Z 2900/0106 10008KT 9999 FEW020 BECMG 2906/2908 30010KT BECMG 2912/2914 00000KT BECMG 0100/0102 10008KT

Orai ataskaitas ir orų prognozės (METAR, TAF).

turimą stotys yra geltonos ir raudonos taškus žemėlapyje.

Perkelti pele per norėdami pamatyti stoties vardą.

Tada spustelėkite, norėdami matyti oro stebėjimo ir prognozės.

Norėdami pakeisti žemėlapį: spustelėkite ant žalios mygtukų su juodo kryžiaus žemyn,; žalią mygtuką su brūkšneliu, jei norite nutolinti; arba žalių rodyklių gretimoms žemėlapius.


METAR-TAF: